createdAt,value
2023-05-07T00:01:07.749Z,58.70
2023-05-07T00:03:39.491Z,58.90
2023-05-07T00:06:11.535Z,58.90
2023-05-07T00:08:43.632Z,59.00
2023-05-07T00:11:15.493Z,59.20
2023-05-07T00:13:46.183Z,59.00
2023-05-07T00:16:20.197Z,59.00
2023-05-07T00:18:50.998Z,59.30
2023-05-07T00:21:22.861Z,59.50
2023-05-07T00:23:53.604Z,59.50
2023-05-07T00:26:26.155Z,59.60
2023-05-07T00:28:57.105Z,59.80
2023-05-07T00:31:30.921Z,60.00
2023-05-07T00:34:02.580Z,60.00
2023-05-07T00:36:33.630Z,60.10
2023-05-07T00:39:05.123Z,60.40
2023-05-07T00:41:36.454Z,60.30
2023-05-07T00:44:07.108Z,60.50
2023-05-07T00:46:41.185Z,60.60
2023-05-07T00:49:12.410Z,60.70
2023-05-07T00:51:43.848Z,60.90
2023-05-07T00:54:15.013Z,60.80
2023-05-07T00:56:46.327Z,61.20
2023-05-07T00:59:17.282Z,61.40
2023-05-07T01:01:51.496Z,61.60
2023-05-07T01:04:22.344Z,61.70
2023-05-07T01:06:54.108Z,61.70
2023-05-07T01:09:25.577Z,61.80
2023-05-07T01:11:58.834Z,62.10
2023-05-07T01:14:30.994Z,62.20
2023-05-07T01:17:04.748Z,62.50
2023-05-07T01:19:35.580Z,62.70
2023-05-07T01:22:08.279Z,62.80
2023-05-07T01:24:50.368Z,62.90
2023-05-07T01:27:21.994Z,63.10
2023-05-07T01:29:56.962Z,63.10
2023-05-07T01:32:31.853Z,63.40
2023-05-07T01:35:03.375Z,63.70
2023-05-07T01:37:34.746Z,63.90
2023-05-07T01:40:09.158Z,64.10
2023-05-07T01:42:43.124Z,64.40
2023-05-07T01:45:14.663Z,64.40
2023-05-07T01:47:46.670Z,64.70
2023-05-07T01:50:20.271Z,65.00
2023-05-07T01:52:51.633Z,65.20
2023-05-07T01:55:25.054Z,65.30
2023-05-07T01:57:56.529Z,65.50
2023-05-07T02:00:27.684Z,65.30
2023-05-07T02:02:59.043Z,65.40
2023-05-07T02:05:56.909Z,65.50
2023-05-07T02:08:40.804Z,65.40
2023-05-07T02:11:15.094Z,65.60
2023-05-07T02:13:47.380Z,65.80
2023-05-07T02:16:19.051Z,65.90
2023-05-07T02:18:50.813Z,66.20
2023-05-07T02:21:21.771Z,66.30
2023-05-07T02:23:53.200Z,66.50
2023-05-07T02:26:27.340Z,66.50
2023-05-07T02:28:58.852Z,66.60
2023-05-07T02:31:29.778Z,66.60
2023-05-07T02:34:01.922Z,66.70
2023-05-07T02:36:32.995Z,67.00
2023-05-07T02:39:15.688Z,67.00
2023-05-07T02:41:51.831Z,67.10
2023-05-07T02:44:28.210Z,67.40
2023-05-07T02:47:00.584Z,67.90
2023-05-07T02:49:33.021Z,67.90
2023-05-07T02:52:04.540Z,68.20
2023-05-07T02:54:35.780Z,68.60
2023-05-07T02:57:09.423Z,69.10
2023-05-07T02:59:40.455Z,69.20
2023-05-07T03:02:11.634Z,69.60
2023-05-07T03:04:43.965Z,69.80
2023-05-07T03:07:14.753Z,69.80
2023-05-07T03:09:45.962Z,69.90
2023-05-07T03:12:20.049Z,69.90
2023-05-07T03:14:51.772Z,70.10
2023-05-07T03:17:22.534Z,70.60
2023-05-07T03:19:53.910Z,70.60
2023-05-07T03:22:24.738Z,70.80
2023-05-07T03:24:55.987Z,71.00
2023-05-07T03:27:29.571Z,71.20
2023-05-07T03:30:01.492Z,71.30
2023-05-07T03:32:32.660Z,71.20
2023-05-07T03:35:03.898Z,71.10
2023-05-07T03:37:36.364Z,71.00
2023-05-07T03:40:13.951Z,70.90
2023-05-07T03:42:54.582Z,70.40
2023-05-07T03:45:29.673Z,70.30
2023-05-07T03:48:13.958Z,70.20
2023-05-07T03:50:45.737Z,69.70
2023-05-07T03:53:16.987Z,69.60
2023-05-07T03:55:48.414Z,69.00
2023-05-07T03:58:21.833Z,69.00
2023-05-07T04:00:53.376Z,68.70
2023-05-07T04:03:31.292Z,68.50
2023-05-07T04:06:04.452Z,68.40
2023-05-07T04:08:38.125Z,68.20
2023-05-07T04:11:10.900Z,68.10
2023-05-07T04:13:45.004Z,67.60
2023-05-07T04:16:16.323Z,67.70
2023-05-07T04:18:47.392Z,67.50
2023-05-07T04:21:19.516Z,67.20
2023-05-07T04:23:51.689Z,66.80
2023-05-07T04:26:25.811Z,65.90
2023-05-07T04:29:00.492Z,66.10
2023-05-07T04:31:36.793Z,65.80
2023-05-07T04:34:07.548Z,65.50
2023-05-07T04:36:38.898Z,65.30
2023-05-07T04:39:14.951Z,64.80
2023-05-07T04:41:49.033Z,64.40
2023-05-07T04:44:22.536Z,64.60
2023-05-07T04:46:53.933Z,64.70
2023-05-07T04:49:24.767Z,63.70
2023-05-07T04:51:58.518Z,63.30
2023-05-07T04:54:29.500Z,63.40
2023-05-07T04:57:00.944Z,63.60
2023-05-07T04:59:34.459Z,63.30
2023-05-07T05:02:06.057Z,63.00
2023-05-07T05:04:37.108Z,63.60
2023-05-07T05:07:09.358Z,63.50
2023-05-07T05:09:40.825Z,62.40
2023-05-07T05:12:12.306Z,61.30
2023-05-07T05:14:46.317Z,62.40
2023-05-07T05:17:18.376Z,61.00
2023-05-07T05:19:49.590Z,61.60
2023-05-07T05:22:21.998Z,62.10
2023-05-07T05:24:53.511Z,61.90
2023-05-07T05:27:26.909Z,61.50
2023-05-07T05:30:00.794Z,61.40
2023-05-07T05:32:34.726Z,61.20
2023-05-07T05:35:06.164Z,61.30
2023-05-07T05:37:37.383Z,61.30
2023-05-07T05:40:11.107Z,60.80
2023-05-07T05:42:42.409Z,61.50
2023-05-07T05:45:20.473Z,61.20
2023-05-07T05:47:51.614Z,61.10
2023-05-07T05:50:22.928Z,62.10
2023-05-07T05:52:54.035Z,61.60
2023-05-07T05:55:26.063Z,61.20
2023-05-07T05:57:57.344Z,60.90
2023-05-07T06:00:32.230Z,60.80
2023-05-07T06:03:07.650Z,61.40
2023-05-07T06:05:39.852Z,61.00
2023-05-07T06:08:11.242Z,61.40
2023-05-07T06:10:42.270Z,61.20
2023-05-07T06:13:13.605Z,60.50
2023-05-07T06:15:48.680Z,60.80
2023-05-07T06:18:20.438Z,61.10
2023-05-07T06:20:51.779Z,60.90
2023-05-07T06:23:29.100Z,61.20
2023-05-07T06:26:00.082Z,61.50
2023-05-07T06:28:37.773Z,61.40
2023-05-07T06:31:21.920Z,61.20
2023-05-07T06:34:04.450Z,61.30
2023-05-07T06:36:40.486Z,61.30
2023-05-07T06:39:38.092Z,62.20
2023-05-07T06:42:09.120Z,62.20
2023-05-07T06:44:47.009Z,61.80
2023-05-07T06:47:22.837Z,62.40
2023-05-07T06:49:57.341Z,62.40
2023-05-07T06:52:31.306Z,63.10
2023-05-07T06:55:02.776Z,62.70
2023-05-07T06:57:34.592Z,63.20
2023-05-07T07:00:08.408Z,63.70
2023-05-07T07:02:49.020Z,62.90
2023-05-07T07:05:23.452Z,63.50
2023-05-07T07:07:54.661Z,63.10
2023-05-07T07:10:27.137Z,62.90
2023-05-07T07:13:00.246Z,62.60
2023-05-07T07:15:32.147Z,62.90
2023-05-07T07:18:05.570Z,63.50
2023-05-07T07:20:36.906Z,63.60
2023-05-07T07:23:08.889Z,63.60
2023-05-07T07:25:40.488Z,62.90
2023-05-07T07:28:12.281Z,62.60
2023-05-07T07:30:44.002Z,63.00
2023-05-07T07:33:18.818Z,63.10
2023-05-07T07:35:50.105Z,62.40
2023-05-07T07:38:21.433Z,62.60
2023-05-07T07:40:52.840Z,62.20
2023-05-07T07:43:25.344Z,60.90
2023-05-07T07:45:56.905Z,61.30
2023-05-07T07:48:30.938Z,61.00
2023-05-07T07:51:03.818Z,61.50
2023-05-07T07:53:35.066Z,61.80
2023-05-07T07:56:07.317Z,61.50
2023-05-07T07:58:40.631Z,61.50
2023-05-07T08:01:14.479Z,61.60
2023-05-07T08:03:50.025Z,62.60
2023-05-07T08:06:22.250Z,60.70
2023-05-07T08:08:53.310Z,61.20
2023-05-07T08:11:24.888Z,60.40
2023-05-07T08:13:57.168Z,60.90
2023-05-07T08:16:31.169Z,60.60
2023-05-07T08:19:08.417Z,60.20
2023-05-07T08:21:43.573Z,60.80
2023-05-07T08:24:16.355Z,59.90
2023-05-07T08:26:47.848Z,60.10
2023-05-07T08:29:19.608Z,60.10
2023-05-07T08:31:51.652Z,59.20
2023-05-07T08:34:26.595Z,58.50
2023-05-07T08:36:59.156Z,58.90
2023-05-07T08:39:30.007Z,57.90
2023-05-07T08:42:05.311Z,58.30
2023-05-07T08:44:38.468Z,58.80
2023-05-07T08:47:11.767Z,57.70
2023-05-07T08:49:46.318Z,57.70
2023-05-07T08:52:21.133Z,58.20
2023-05-07T08:54:52.690Z,58.10
2023-05-07T08:57:25.697Z,57.70
2023-05-07T08:59:58.236Z,57.60
2023-05-07T09:02:30.063Z,56.90
2023-05-07T09:05:03.628Z,57.20
2023-05-07T09:07:35.553Z,57.10
2023-05-07T09:10:08.348Z,57.50
2023-05-07T09:12:41.862Z,56.60
2023-05-07T09:15:16.075Z,55.20
2023-05-07T09:17:48.179Z,55.30
2023-05-07T09:20:22.192Z,55.10
2023-05-07T09:22:53.679Z,55.20
2023-05-07T09:25:32.174Z,55.90
2023-05-07T09:28:08.591Z,53.00
2023-05-07T09:30:40.468Z,53.90
2023-05-07T09:33:17.738Z,54.40
2023-05-07T09:35:58.165Z,55.10
2023-05-07T09:38:30.055Z,54.30
2023-05-07T09:41:07.189Z,53.80
2023-05-07T09:43:44.286Z,54.20
2023-05-07T09:46:19.394Z,53.30
2023-05-07T09:48:57.008Z,52.60
2023-05-07T09:51:33.435Z,52.90
2023-05-07T09:54:06.638Z,54.00
2023-05-07T09:56:40.371Z,53.70
2023-05-07T09:59:12.631Z,52.10
2023-05-07T10:01:44.733Z,51.60
2023-05-07T10:04:17.130Z,51.50
2023-05-07T10:06:52.237Z,51.40
2023-05-07T10:09:23.816Z,51.70
2023-05-07T10:11:54.607Z,52.50
2023-05-07T10:14:26.706Z,52.00
2023-05-07T10:16:57.921Z,52.80
2023-05-07T10:19:29.778Z,52.80
2023-05-07T10:22:07.172Z,50.80
2023-05-07T10:24:43.724Z,50.40
2023-05-07T10:27:20.285Z,51.00
2023-05-07T10:29:58.010Z,50.80
2023-05-07T10:32:34.577Z,50.40
2023-05-07T10:35:08.021Z,50.30
2023-05-07T10:37:41.811Z,50.30
2023-05-07T10:40:13.689Z,50.80
2023-05-07T10:42:57.110Z,51.60
2023-05-07T10:45:29.216Z,51.00
2023-05-07T10:48:28.025Z,50.30
2023-05-07T10:51:19.178Z,50.20
2023-05-07T10:53:52.578Z,50.60
2023-05-07T10:56:32.469Z,49.80
2023-05-07T10:59:42.093Z,50.20
2023-05-07T11:02:21.217Z,49.50
2023-05-07T11:05:16.646Z,49.40
2023-05-07T11:07:57.817Z,50.00
2023-05-07T11:10:49.135Z,50.40
2023-05-07T11:13:42.059Z,49.40
2023-05-07T11:16:24.349Z,48.80
2023-05-07T11:19:02.717Z,49.50
2023-05-07T11:21:43.211Z,49.80
2023-05-07T11:24:43.558Z,48.60
2023-05-07T11:27:16.463Z,49.20
2023-05-07T11:29:50.970Z,49.60
2023-05-07T11:32:30.655Z,48.80
2023-05-07T11:35:03.931Z,47.80
2023-05-07T11:37:34.604Z,47.80
2023-05-07T11:40:09.142Z,48.00
2023-05-07T11:42:40.951Z,48.00
2023-05-07T11:45:19.568Z,48.90
2023-05-07T11:47:53.883Z,48.40
2023-05-07T11:50:25.253Z,48.30
2023-05-07T11:52:56.564Z,47.90
2023-05-07T11:55:28.595Z,47.90
2023-05-07T11:57:59.230Z,47.60
2023-05-07T12:00:30.380Z,47.60
2023-05-07T12:03:06.737Z,47.80
2023-05-07T12:05:38.691Z,47.00
2023-05-07T12:08:09.249Z,46.20
2023-05-07T12:10:44.836Z,46.60
2023-05-07T12:13:20.237Z,46.40
2023-05-07T12:15:54.614Z,47.10
2023-05-07T12:18:28.002Z,46.90
2023-05-07T12:20:59.002Z,47.90
2023-05-07T12:23:29.825Z,47.20
2023-05-07T12:26:01.000Z,46.40
2023-05-07T12:28:32.324Z,46.70
2023-05-07T12:31:05.872Z,47.50
2023-05-07T12:33:39.578Z,47.20
2023-05-07T12:36:11.608Z,46.60
2023-05-07T12:38:42.711Z,46.10
2023-05-07T12:41:14.154Z,45.60
2023-05-07T12:43:48.276Z,46.20
2023-05-07T12:46:19.943Z,46.40
2023-05-07T12:48:53.283Z,46.70
2023-05-07T12:51:24.540Z,47.50
2023-05-07T12:53:59.945Z,47.80
2023-05-07T12:56:35.236Z,48.30
2023-05-07T12:59:05.881Z,47.30
2023-05-07T13:01:38.561Z,47.40
2023-05-07T13:04:12.146Z,47.70
2023-05-07T13:06:44.401Z,47.50
2023-05-07T13:09:16.048Z,46.90
2023-05-07T13:11:51.306Z,47.10
2023-05-07T13:14:22.183Z,46.80
2023-05-07T13:16:53.260Z,46.30
2023-05-07T13:19:26.550Z,47.00
2023-05-07T13:21:57.593Z,47.40
2023-05-07T13:24:28.428Z,47.30
2023-05-07T13:27:00.480Z,46.70
2023-05-07T13:29:33.406Z,46.90
2023-05-07T13:32:04.513Z,47.10
2023-05-07T13:34:38.439Z,46.80
2023-05-07T13:37:11.253Z,47.80
2023-05-07T13:39:42.426Z,48.00
2023-05-07T13:42:13.368Z,47.20
2023-05-07T13:44:45.165Z,46.80
2023-05-07T13:47:16.272Z,46.20
2023-05-07T13:49:50.822Z,47.40
2023-05-07T13:52:21.879Z,46.70
2023-05-07T13:54:53.544Z,47.10
2023-05-07T13:57:24.638Z,47.20
2023-05-07T13:59:56.804Z,47.30
2023-05-07T14:02:28.875Z,47.20
2023-05-07T14:05:02.332Z,46.70
2023-05-07T14:07:33.400Z,46.70
2023-05-07T14:10:04.116Z,46.40
2023-05-07T14:12:36.083Z,46.30
2023-05-07T14:15:06.991Z,45.90
2023-05-07T14:17:37.992Z,46.10
2023-05-07T14:20:12.616Z,46.10
2023-05-07T14:22:43.826Z,46.00
2023-05-07T14:25:14.825Z,46.30
2023-05-07T14:27:53.178Z,45.80
2023-05-07T14:30:25.689Z,45.90
2023-05-07T14:32:56.836Z,45.80
2023-05-07T14:35:30.049Z,46.30
2023-05-07T14:38:03.183Z,45.90
2023-05-07T14:40:33.774Z,45.70
2023-05-07T14:43:06.039Z,46.20
2023-05-07T14:45:36.894Z,46.40
2023-05-07T14:48:10.631Z,45.90
2023-05-07T14:50:44.035Z,46.20
2023-05-07T14:53:15.081Z,45.40
2023-05-07T14:55:45.996Z,44.80
2023-05-07T14:58:17.094Z,44.90
2023-05-07T15:00:48.095Z,45.20
2023-05-07T15:03:19.588Z,45.20
2023-05-07T15:05:53.845Z,44.80
2023-05-07T15:08:25.156Z,44.10
2023-05-07T15:10:56.641Z,44.20
2023-05-07T15:13:28.803Z,44.50
2023-05-07T15:15:59.480Z,44.10
2023-05-07T15:18:30.593Z,44.80
2023-05-07T15:21:05.017Z,44.40
2023-05-07T15:23:37.747Z,44.60
2023-05-07T15:26:09.454Z,44.70
2023-05-07T15:28:40.765Z,44.70
2023-05-07T15:31:16.397Z,44.60
2023-05-07T15:33:48.961Z,45.00
2023-05-07T15:36:22.359Z,45.00
2023-05-07T15:41:25.486Z,44.80
2023-05-07T15:43:57.103Z,45.00
2023-05-07T15:46:29.360Z,45.20
2023-05-07T15:49:00.638Z,44.60
2023-05-07T15:51:34.292Z,45.00
2023-05-07T15:54:05.522Z,44.90
2023-05-07T15:56:36.403Z,44.20
2023-05-07T15:59:08.013Z,44.30
2023-05-07T16:01:38.827Z,44.40
2023-05-07T16:04:11.212Z,44.40
2023-05-07T16:06:47.580Z,44.10
2023-05-07T16:09:19.476Z,44.40
2023-05-07T16:11:50.320Z,44.10
2023-05-07T16:14:21.592Z,44.00
2023-05-07T16:16:53.916Z,43.50
2023-05-07T16:19:26.115Z,43.30
2023-05-07T16:22:00.580Z,42.60
2023-05-07T16:24:32.048Z,42.80
2023-05-07T16:27:02.938Z,42.60
2023-05-07T16:29:34.386Z,42.90
2023-05-07T16:32:05.090Z,42.90
2023-05-07T16:34:36.192Z,43.10
2023-05-07T16:37:11.720Z,42.90
2023-05-07T16:39:43.069Z,42.70
2023-05-07T16:42:14.366Z,42.50
2023-05-07T16:44:45.375Z,42.90
2023-05-07T16:47:16.182Z,43.40
2023-05-07T16:49:48.166Z,43.30
2023-05-07T16:52:21.604Z,43.20
2023-05-07T16:54:53.432Z,42.90
2023-05-07T16:57:24.269Z,42.50
2023-05-07T16:59:55.753Z,43.00
2023-05-07T17:02:26.599Z,43.30
2023-05-07T17:04:57.755Z,43.50
2023-05-07T17:07:31.723Z,43.60
2023-05-07T17:10:04.180Z,43.20
2023-05-07T17:12:38.031Z,43.40
2023-05-07T17:15:09.941Z,43.80
2023-05-07T17:17:41.957Z,43.90
2023-05-07T17:20:15.240Z,44.00
2023-05-07T17:22:48.817Z,44.20
2023-05-07T17:25:19.767Z,44.20
2023-05-07T17:27:50.858Z,44.50
2023-05-07T17:30:22.404Z,44.50
2023-05-07T17:32:55.062Z,44.70
2023-05-07T17:35:27.745Z,45.00
2023-05-07T17:38:01.247Z,45.00
2023-05-07T17:40:32.549Z,45.00
2023-05-07T17:43:03.250Z,45.10
2023-05-07T17:45:36.410Z,45.40
2023-05-07T17:48:08.341Z,45.60
2023-05-07T17:50:39.535Z,45.70
2023-05-07T17:53:12.912Z,46.00
2023-05-07T17:55:48.187Z,46.20
2023-05-07T17:58:18.911Z,46.20
2023-05-07T18:00:50.891Z,46.40
2023-05-07T18:03:21.739Z,47.10
2023-05-07T18:05:53.241Z,46.70
2023-05-07T18:08:27.706Z,46.90
2023-05-07T18:10:58.863Z,47.10
2023-05-07T18:13:29.678Z,47.30
2023-05-07T18:16:00.799Z,47.50
2023-05-07T18:18:32.696Z,47.70
2023-05-07T18:21:05.737Z,47.80
2023-05-07T18:23:39.085Z,48.10
2023-05-07T18:26:11.528Z,48.40
2023-05-07T18:28:43.515Z,48.60
2023-05-07T18:31:18.555Z,48.60
2023-05-07T18:33:49.403Z,48.90
2023-05-07T18:36:20.582Z,48.80
2023-05-07T18:38:54.684Z,49.10
2023-05-07T18:41:25.727Z,49.20
2023-05-07T18:43:56.632Z,49.20
2023-05-07T18:46:29.519Z,49.40
2023-05-07T18:49:00.393Z,49.80
2023-05-07T18:51:31.922Z,49.70
2023-05-07T18:54:05.613Z,50.00
2023-05-07T18:56:37.001Z,50.20
2023-05-07T18:59:08.175Z,50.50
2023-05-07T19:01:39.829Z,50.70
2023-05-07T19:04:12.079Z,51.10
2023-05-07T19:06:43.788Z,51.30
2023-05-07T19:09:17.856Z,51.60
2023-05-07T19:11:49.146Z,51.80
2023-05-07T19:14:20.116Z,52.10
2023-05-07T19:16:52.529Z,52.20
2023-05-07T19:19:23.764Z,52.30
2023-05-07T19:21:55.438Z,52.60
2023-05-07T19:24:28.866Z,52.70
2023-05-07T19:27:00.141Z,52.40
2023-05-07T19:29:31.205Z,52.40
2023-05-07T19:32:02.588Z,52.40
2023-05-07T19:34:33.952Z,52.40
2023-05-07T19:37:05.906Z,52.40
2023-05-07T19:39:39.779Z,52.50
2023-05-07T19:42:11.327Z,52.80
2023-05-07T19:44:42.620Z,52.70
2023-05-07T19:47:14.305Z,52.70
2023-05-07T19:49:48.107Z,52.80
2023-05-07T19:52:19.961Z,52.90
2023-05-07T19:54:53.928Z,52.90
2023-05-07T19:57:25.244Z,52.70
2023-05-07T19:59:56.813Z,52.80
2023-05-07T20:02:28.558Z,53.10
2023-05-07T20:04:59.912Z,53.00
2023-05-07T20:07:34.338Z,53.20
2023-05-07T20:10:08.663Z,53.10
2023-05-07T20:12:40.586Z,52.70
2023-05-07T20:15:12.714Z,53.20
2023-05-07T20:17:44.376Z,53.20
2023-05-07T20:20:16.150Z,53.30
2023-05-07T20:22:47.383Z,53.40
2023-05-07T20:25:21.077Z,53.40
2023-05-07T20:27:53.084Z,53.80
2023-05-07T20:30:25.201Z,54.20
2023-05-07T20:32:57.949Z,54.60
2023-05-07T20:35:28.747Z,55.00
2023-05-07T20:38:00.087Z,55.70
2023-05-07T20:40:37.582Z,56.50
2023-05-07T20:43:08.860Z,57.50
2023-05-07T20:45:39.861Z,58.50
2023-05-07T20:48:11.231Z,59.30
2023-05-07T20:50:42.583Z,59.90
2023-05-07T20:53:14.350Z,60.40
2023-05-07T20:55:48.361Z,60.70
2023-05-07T20:58:19.950Z,61.30
2023-05-07T21:00:50.628Z,61.80
2023-05-07T21:03:22.489Z,63.10
2023-05-07T21:05:56.935Z,64.00
2023-05-07T21:08:28.650Z,63.70
2023-05-07T21:11:02.640Z,63.90
2023-05-07T21:13:34.004Z,64.60
2023-05-07T21:16:06.535Z,65.40
2023-05-07T21:18:37.980Z,66.20
2023-05-07T21:21:10.560Z,67.40
2023-05-07T21:23:41.733Z,67.20
2023-05-07T21:26:20.792Z,67.60
2023-05-07T21:28:52.580Z,68.00
2023-05-07T21:31:24.157Z,68.50
2023-05-07T21:33:57.686Z,69.10
2023-05-07T21:36:28.833Z,69.60
2023-05-07T21:38:59.866Z,69.80
2023-05-07T21:41:33.112Z,70.30
2023-05-07T21:44:04.222Z,70.90
2023-05-07T21:46:36.678Z,71.60
2023-05-07T21:49:09.609Z,71.90
2023-05-07T21:51:40.414Z,72.20
2023-05-07T21:54:11.353Z,73.00
2023-05-07T21:56:46.568Z,73.40
2023-05-07T21:59:19.278Z,73.50
2023-05-07T22:01:50.778Z,73.90
2023-05-07T22:04:25.652Z,74.30
2023-05-07T22:06:57.206Z,74.60
2023-05-07T22:09:28.718Z,74.80
2023-05-07T22:12:02.396Z,75.00
2023-05-07T22:14:34.452Z,75.30
2023-05-07T22:17:05.771Z,76.10
2023-05-07T22:19:37.440Z,76.20
2023-05-07T22:22:08.935Z,76.40
2023-05-07T22:24:40.643Z,76.50
2023-05-07T22:27:15.388Z,76.40
2023-05-07T22:29:46.926Z,77.00
2023-05-07T22:32:18.516Z,77.50
2023-05-07T22:34:49.708Z,78.20
2023-05-07T22:37:20.696Z,78.30
2023-05-07T22:39:53.146Z,78.80
2023-05-07T22:42:27.255Z,79.50
2023-05-07T22:44:59.313Z,80.60
2023-05-07T22:47:32.107Z,80.60
2023-05-07T22:50:05.556Z,80.70
2023-05-07T22:52:36.777Z,81.30
2023-05-07T22:55:08.564Z,81.50
2023-05-07T22:57:42.155Z,81.90
2023-05-07T23:00:14.936Z,82.70
2023-05-07T23:02:46.048Z,82.20
2023-05-07T23:05:17.796Z,82.40
2023-05-07T23:07:49.597Z,82.50
2023-05-07T23:10:21.497Z,82.90
2023-05-07T23:12:56.021Z,83.00
2023-05-07T23:15:29.335Z,83.10
2023-05-07T23:18:00.192Z,84.10
2023-05-07T23:20:31.421Z,83.80
2023-05-07T23:23:02.575Z,84.20
2023-05-07T23:25:33.735Z,84.40
2023-05-07T23:28:07.138Z,84.10
2023-05-07T23:30:38.798Z,84.50
2023-05-07T23:33:09.585Z,85.00
2023-05-07T23:35:40.758Z,85.30
2023-05-07T23:38:11.322Z,85.70
2023-05-07T23:40:42.456Z,85.70
2023-05-07T23:43:15.719Z,86.30
2023-05-07T23:45:47.311Z,87.50
2023-05-07T23:48:18.219Z,88.70
2023-05-07T23:50:49.597Z,89.60
2023-05-07T23:53:20.444Z,90.30
2023-05-07T23:55:51.935Z,90.30
2023-05-07T23:58:25.448Z,90.40
